ファレオロ国際空港(サモア)の過去48時間の天気

ファレオロ国際空港(サモア) (Faleolo Intl / Apia)

現在時刻: 1/23 15:12 +14 (1/23 01:12 UTC) 以下の時間は現地時間です。

過去48時間のMETAR気象情報
時間 風向 風速(m/s) 視程 気温(℃) 湿度(%) 気圧(hPa) 天気現象
23 14:00 北北東 5 10km以上 33 67 1010
23 13:00 北北東 6 10km以上 32 71 1010
23 12:00 東北東 5 10km以上 31 75 1011
23 11:00 北北東 5 10km以上 31 75 1011
23 10:00 東北東 5 10km以上 31 70 1011
23 09:00 東北東 3 10km以上 29 79 1011
23 08:00 2 10km以上 26 94 1011
23 07:00 2 10km以上 24 100 1010
23 06:00 3 10km以上 24 100 1010
23 05:00 3 10km以上 25 94 1010
23 03:00 東南東 3 10km以上 24 100 1010
23 02:00 3 10km以上 25 94 1011
23 01:00 3 10km以上 25 89 1012
22 23:00 3 10km以上 25 94 1012
22 22:00 3 10km以上 25 94 1012
22 21:00 4 10km以上 25 94 1011
22 20:00 東北東 4 10km以上 26 94 1010
22 19:00 東北東 4 10km以上 27 89 1010
22 18:00 北東 4 10km以上 28 84 1009
22 17:00 2 10km以上 28 89 1009
22 16:00 4 10km以上 26 94 1010
22 15:00 北東 5 10km以上 29 84 1010
22 14:00 北東 4 10km以上 31 79 1010
22 13:00 4 10km以上 31 79 1011
22 12:00 4 10km以上 30 75 1011
22 11:00 3 10km以上 29 84 1011
22 10:00 北北西 5 10km以上 30 84 1011
22 09:00 北東 2 10km以上 28 94 1011
22 08:00 3 10km以上 26 100 1010
22 07:00 東南東 2 10km以上 25 94 1009
22 06:00 3 10km以上 25 94 1008
22 05:00 4 10km以上 25 94 1008
22 04:00 東北東 7 10km以上 25 100 1009
22 03:00 4 10km以上 25 94 1009
22 02:00 3 10km以上 27 84 1010
22 01:00 3 10km以上 27 94 1010
22 00:00 東北東 3 10km以上 27 84 1011
21 23:00 3 10km以上 27 94 1010
21 22:00 東南東 2 10km以上 27 94 1010
21 21:00 3 10km以上 27 94 1010
21 20:00 東北東 2 10km以上 28 89 1009
21 19:00 東北東 4 10km以上 30 84 1008
21 18:00 北北東 6 10km以上 32 75 1008
21 17:00 北北東 6 10km以上 33 71 1008
21 16:00 北東 4 10km以上 32 71 1008
NSFA 230000Z 02009KT 9999 BKN025 33/26 Q1010
NSFA 222300Z 02011KT 9999 FEW026 BKN260 32/26 Q1010
NSFA 222200Z 06010KT 9999 SCT024 31/26 Q1011
NSFA 222100Z 03010KT 9999 SCT023 31/26 Q1011
NSFA 222000Z 06009G18KT 360V070 9999 SCT023 31/25 Q1011
NSFA 221900Z 07006KT 9999 FEW023 29/25 Q1011
NSFA 221800Z 10004KT 9999 FEW023 26/25 Q1011
NSFA 221700Z 10004KT 9999 FEW022 24/24 Q1010
NSFA 221600Z 08005KT 9999 SCT022 24/24 Q1010
NSFA 221500Z 08005KT 9999 SCT022 25/24 Q1010
NSFA 221300Z 11006KT 9999 SCT022 24/24 Q1010
NSFA 221200Z 10006KT 9999 SCT022 25/24 Q1011
NSFA 221100Z 09005KT 9999 SCT020 25/23 Q1012
NSFA 220900Z 09006KT 9999 FEW028 SCT280 25/24 Q1012
NSFA 220800Z 09006KT 9999 FEW027 BKN280 25/24 Q1012
NSFA 220700Z 09008KT 9999 FEW025 SCT160 BKN260 25/24 Q1011
NSFA 220600Z 07007KT 050V110 9999 FEW024 SCT180 BKN260 26/25 Q1010
NSFA 220500Z 06007KT 9999 FEW025 BKN170 27/25 Q1010
NSFA 220400Z 05008KT 020V090 9999 FEW020TCU FEW025 BKN260 28/25 Q1009 RMK TCU TO W
NSFA 220300Z 08003KT 010V070 9999 SCT020 BKN170 28/26 Q1009
NSFA 220200Z 08008KT 9999 FEW020 SCT042 BKN160 26/25 Q1010 RERA
NSFA 220100Z 05010KT 020V110 9999 SCT020 BKN160 29/26 Q1010
NSFA 220000Z 05007KT 360V080 9999 SCT020 BKN280 31/27 Q1010
NSFA 212300Z 01007KT 9999 FEW018CB FEW024 BKN280 31/27 Q1011 RMK CB TO NW
NSFA 212200Z 36007KT 210V030 9999 FEW019CB SCT020 BKN270 30/25 Q1011 RMK CB TO NW
NSFA 212100Z 35005KT 9999 FEW019CB BKN020 29/26 Q1011 RMK CB TO NNW
NSFA 212000Z 33009KT 9999 FEW018CB BKN020 30/27 Q1011 RMK CB TO N
NSFA 211900Z 05003KT 9999 FEW020CB BKN022 28/27 Q1011 RMK CB TO N
NSFA 211800Z 01005KT 9999 FEW020CB FEW022 BKN270 26/26 Q1010 RMK CB TO NNW
NSFA 211700Z 11004KT 9999 FEW018CB SCT020 25/24 Q1009 RMK CB TO N
NSFA 211600Z 08006KT 9999 FEW022 SCT160 25/24 Q1008
NSFA 211500Z 08007KT 9999 SCT020 25/24 Q1008
NSFA 211400Z 06013KT 9999 FEW020 SCT045 BKN150 25/25 Q1009
NSFA 211300Z 09007KT 040V100 9999 FEW020 SCT048 25/24 Q1009
NSFA 211200Z 01006KT 9999 BKN020 27/24 Q1010
NSFA 211100Z 09006KT 9999 SCT020 27/26 Q1010
NSFA 211000Z 07006KT 9999 SCT020 27/24 Q1011
NSFA 210900Z 10005KT 9999 FEW028 27/26 Q1010
NSFA 210800Z 11004KT 9999 SCT026 27/26 Q1010
NSFA 210700Z 10005KT 9999 SCT026 27/26 Q1010
NSFA 210600Z 07003KT 9999 FEW020TCU SCT024 28/26 Q1009 RMK TCU TO SW
NSFA 210500Z 06007KT 030V090 9999 FEW018CB SCT025 30/27 Q1008 RMK CB TO NW
NSFA 210400Z 02012KT 9999 FEW020CB SCT023 32/27 Q1008 RMK CB TO SSW
NSFA 210300Z 02012KT 9999 FEW018TCU BKN024 33/27 Q1008 RMK TCU TO SW
NSFA 210200Z 04007KT 340V090 9999 FEW020CB SCT025 32/26 Q1008 RMK CB TO SSW